Time;durP1;ratioP1;P1;durP2;ratioP2;P2;SDS_P1;SDS_P2;PMS_P1;PMS_P2;Temp;Humidity;BMP_temperature;BMP_pressure;BME280_temperature;BME280_humidity;BME280_pressure;Samples;Min_cycle;Max_cycle;Signal;HPM_P1;HPM_P2
2021/12/21 00:01:08;;;;;;;17.35;9.43;;;;;;;-4.15;100.00;101314.47;5005621;28;20037;-85
2021/12/21 00:03:33;;;;;;;16.90;9.75;;;;;;;-4.17;100.00;101305.66;5035028;28;20063;-85
2021/12/21 00:06:22;;;;;;;15.27;9.52;;;;;;;-4.25;100.00;101307.00;5039985;28;20021;-84
2021/12/21 00:09:20;;;;;;;17.05;10.23;;;;;;;-4.26;100.00;101305.25;4996148;28;20061;-84
2021/12/21 00:11:50;;;;;;;14.60;8.75;;;;;;;-4.26;100.00;101310.47;5036676;28;20021;-85
2021/12/21 00:14:33;;;;;;;17.70;8.80;;;;;;;-4.17;100.00;101304.78;5036170;28;20049;-84
2021/12/21 00:17:34;;;;;;;17.35;9.60;;;;;;;-4.29;100.00;101306.00;5036813;28;20088;-82
2021/12/21 00:23:46;;;;;;;17.85;9.25;;;;;;;-4.31;100.00;101297.22;4976780;28;20030;-83
2021/12/21 00:26:14;;;;;;;15.00;8.63;;;;;;;-4.33;100.00;101298.81;4959850;28;20041;-82
2021/12/21 00:28:55;;;;;;;16.50;9.05;;;;;;;-4.33;100.00;101290.13;4976235;28;20035;-82
2021/12/21 00:31:32;;;;;;;15.57;9.00;;;;;;;-4.39;100.00;101290.72;5003095;28;20033;-83
2021/12/21 00:34:22;;;;;;;15.77;9.00;;;;;;;-4.39;100.00;101293.34;5040478;28;20140;-83
2021/12/21 00:37:16;;;;;;;13.80;8.27;;;;;;;-4.45;100.00;101286.09;5039419;28;20105;-81
2021/12/21 00:39:49;;;;;;;12.95;7.95;;;;;;;-4.49;100.00;101292.91;5024165;28;20494;-81
2021/12/21 00:42:46;;;;;;;16.73;8.73;;;;;;;-4.47;100.00;101295.56;5045559;28;20029;-81
2021/12/21 00:45:20;;;;;;;14.45;8.57;;;;;;;-4.49;100.00;101302.44;5050185;28;20041;-81
2021/12/21 00:48:09;;;;;;;15.57;8.52;;;;;;;-4.50;100.00;101303.25;5050339;28;20033;-81
2021/12/21 00:50:37;;;;;;;15.63;8.07;;;;;;;-4.50;100.00;101306.75;5049422;28;20034;-81
2021/12/21 00:53:52;;;;;;;16.55;8.13;;;;;;;-4.54;100.00;101297.00;5049123;28;20089;-82
2021/12/21 00:56:30;;;;;;;16.00;8.00;;;;;;;-4.54;100.00;101296.09;4986640;28;20038;-83
2021/12/21 00:59:13;;;;;;;14.88;7.85;;;;;;;-4.64;100.00;101287.81;5044306;28;20063;-83
2021/12/21 01:01:42;;;;;;;15.32;8.20;;;;;;;-4.66;100.00;101289.44;5043009;28;20017;-85
2021/12/21 01:04:36;;;;;;;14.55;8.45;;;;;;;-4.64;100.00;101292.16;5043725;28;20018;-84
2021/12/21 01:07:34;;;;;;;17.70;8.90;;;;;;;-4.68;100.00;101285.88;5039759;28;20064;-85
2021/12/21 01:16:25;;;;;;;20.85;10.70;;;;;;;-4.74;100.00;101281.25;4993726;28;20197;-82
2021/12/21 01:19:21;;;;;;;21.25;12.18;;;;;;;-4.73;100.00;101282.16;4998851;28;20038;-83
2021/12/21 01:22:08;;;;;;;25.88;13.27;;;;;;;-4.74;100.00;101281.25;5012896;28;20033;-85
2021/12/21 01:27:55;;;;;;;25.80;12.20;;;;;;;-4.66;100.00;101275.53;5042977;28;20025;-85
2021/12/21 01:30:38;;;;;;;21.65;11.75;;;;;;;-4.71;100.00;101270.09;5039186;28;20045;-83
2021/12/21 01:36:00;;;;;;;24.23;13.10;;;;;;;-4.77;100.00;101275.91;5041921;28;20627;-83
2021/12/21 01:38:37;;;;;;;27.25;13.68;;;;;;;-4.76;100.00;101276.78;5041341;28;20040;-83
2021/12/21 01:44:43;;;;;;;22.50;13.45;;;;;;;-4.80;100.00;101264.44;4999890;28;20018;-83
2021/12/21 01:50:04;;;;;;;23.13;12.75;;;;;;;-4.78;100.00;101268.00;5034220;28;20068;-83
2021/12/21 01:52:50;;;;;;;;;;;;;;;;;;;;;
2021/12/21 01:55:26;;;;;;;22.50;12.90;;;;;;;-4.66;100.00;101272.91;5034809;28;20482;-82
2021/12/21 01:57:59;;;;;;;30.27;15.10;;;;;;;-4.54;100.00;101270.94;5033353;28;20033;-82
2021/12/21 02:00:39;;;;;;;21.08;13.77;;;;;;;-4.65;100.00;101270.41;5035932;28;20025;-83
2021/12/21 02:03:09;;;;;;;27.50;14.07;;;;;;;-4.72;100.00;101269.22;5038005;28;20405;-83
2021/12/21 02:06:00;;;;;;;21.58;14.10;;;;;;;-4.65;100.00;101270.41;5038342;28;20033;-83
2021/12/21 02:08:35;;;;;;;28.00;14.65;;;;;;;-4.65;100.00;101270.41;5038341;28;20025;-83
2021/12/21 02:11:26;;;;;;;21.92;14.55;;;;;;;-4.71;100.00;101265.78;5040497;28;20033;-82
2021/12/21 02:14:05;;;;;;;24.58;13.43;;;;;;;-4.75;100.00;101271.66;5040145;28;20057;-83
2021/12/21 02:17:16;;;;;;;24.58;13.95;;;;;;;-4.72;100.00;101273.53;5040981;28;20045;-83
2021/12/21 02:23:37;;;;;;;20.77;12.50;;;;;;;-4.73;100.00;101246.56;5030783;28;20032;-83
2021/12/21 02:31:13;;;;;;;18.77;11.40;;;;;;;-4.83;100.00;101255.66;5034345;28;20029;-83
2021/12/21 02:33:49;;;;;;;;;;;;;;;;;;;;;
2021/12/21 02:36:33;;;;;;;20.83;11.30;;;;;;;-4.95;100.00;101249.84;5034850;28;20032;-82
2021/12/21 02:39:38;;;;;;;24.25;13.10;;;;;;;-4.97;100.00;101247.16;5033867;28;20117;-82
2021/12/21 02:42:41;;;;;;;24.05;12.85;;;;;;;-4.96;100.00;101248.06;5039651;28;20391;-83
2021/12/21 02:45:21;;;;;;;18.75;11.52;;;;;;;-4.98;100.00;101247.09;4999764;28;20090;-83
2021/12/21 02:47:53;;;;;;;18.58;11.57;;;;;;;-5.00;100.00;101244.38;4984484;28;20070;-81
2021/12/21 02:50:32;;;;;;;22.00;11.98;;;;;;;-5.05;100.00;101246.75;5000488;28;20443;-83
2021/12/21 02:53:06;;;;;;;22.35;11.57;;;;;;;-5.56;100.00;101254.59;4999297;28;20062;-81
2021/12/21 02:55:40;;;;;;;20.70;10.38;;;;;;;-5.65;100.00;101244.63;4990967;28;20040;-83
2021/12/21 02:58:12;;;;;;;18.38;10.25;;;;;;;-5.57;100.00;101243.31;5039951;28;20465;-83
2021/12/21 03:00:43;;;;;;;20.88;10.50;;;;;;;-5.52;100.00;101246.16;5039938;28;20065;-83
2021/12/21 03:03:21;;;;;;;17.33;10.65;;;;;;;-5.52;100.00;101239.25;5037579;28;20061;-82
2021/12/21 03:06:08;;;;;;;18.05;10.20;;;;;;;-5.47;100.00;101239.50;5037028;28;20033;-82
2021/12/21 03:08:41;;;;;;;15.68;9.40;;;;;;;-5.53;100.00;101244.38;5038609;28;20053;-80
2021/12/21 03:11:47;;;;;;;21.63;11.20;;;;;;;-5.56;100.00;101239.91;5033193;28;20398;-81
2021/12/21 03:14:25;;;;;;;21.63;12.20;;;;;;;-5.59;100.00;101234.53;5036617;28;20033;-80
2021/12/21 03:16:53;;;;;;;22.03;11.53;;;;;;;-5.66;100.00;101229.81;5035592;28;20112;-83
2021/12/21 03:19:31;;;;;;;20.73;12.00;;;;;;;-5.67;100.00;101226.31;5035799;28;20496;-81
2021/12/21 03:22:22;;;;;;;;;;;;;;;;;;;;;
2021/12/21 03:25:01;;;;;;;20.05;11.25;;;;;;;-5.66;100.00;101227.22;5040618;28;20529;-83
2021/12/21 03:27:27;;;;;;;18.10;11.25;;;;;;;-5.65;100.00;101223.81;5039183;28;20033;-83
2021/12/21 03:30:22;;;;;;;21.63;12.07;;;;;;;-5.64;100.00;101222.97;5036994;28;20124;-81
2021/12/21 03:32:53;;;;;;;26.27;13.40;;;;;;;-5.66;100.00;101227.22;5039740;28;20025;-83
2021/12/21 03:35:27;;;;;;;24.45;13.90;;;;;;;-5.70;100.00;101230.47;5040314;28;20036;-82
2021/12/21 03:38:13;;;;;;;25.60;14.43;;;;;;;-5.71;100.00;101234.78;5039079;28;20025;-83
2021/12/21 03:41:01;;;;;;;29.88;14.38;;;;;;;-5.74;100.00;101224.22;5035518;28;20064;-83
2021/12/21 03:43:34;;;;;;;26.13;13.93;;;;;;;-5.70;100.00;101240.91;5035655;28;20021;-81
2021/12/21 03:47:00;;;;;;;23.77;13.60;;;;;;;-5.73;100.00;101233.81;5035926;28;20075;-83
2021/12/21 03:49:50;;;;;;;31.25;15.27;;;;;;;-5.76;100.00;101224.16;5027250;28;20406;-82
2021/12/21 03:51:55;;;;;;;27.95;14.70;;;;;;;-5.76;100.00;101225.84;5035946;28;20033;-81
2021/12/21 03:55:30;;;;;;;26.98;14.75;;;;;;;-5.75;100.00;101227.66;5035492;28;20022;-81
2021/12/21 03:57:36;;;;;;;28.17;14.85;;;;;;;-5.77;100.00;101224.06;5028769;28;20130;-83
2021/12/21 04:00:22;;;;;;;29.33;15.15;;;;;;;-5.83;100.00;101229.84;5043625;28;20025;-83
2021/12/21 04:02:56;;;;;;;27.80;14.75;;;;;;;-5.85;100.00;101228.88;5040476;28;20489;-83
2021/12/21 04:05:28;;;;;;;32.88;14.85;;;;;;;-5.85;100.00;101231.47;5041663;28;20041;-83
2021/12/21 04:07:59;;;;;;;28.00;15.25;;;;;;;-5.83;100.00;101214.25;5037839;28;20022;-83
2021/12/21 04:10:53;;;;;;;24.50;13.82;;;;;;;-5.77;100.00;101216.28;5041219;28;20025;-85
2021/12/21 04:13:25;;;;;;;25.15;13.48;;;;;;;-5.81;100.00;101223.00;5038722;28;20022;-85
2021/12/21 04:16:02;;;;;;;24.83;12.73;;;;;;;-5.85;100.00;101223.69;5037226;28;20079;-84
2021/12/21 04:18:48;;;;;;;22.38;11.50;;;;;;;-5.82;100.00;101210.81;5034545;28;20078;-84
2021/12/21 04:21:28;;;;;;;22.25;12.35;;;;;;;-5.80;100.00;101218.72;5035181;28;20498;-84
2021/12/21 04:24:19;;;;;;;23.83;11.75;;;;;;;-5.81;100.00;101223.00;5037374;28;20033;-85
2021/12/21 04:27:18;;;;;;;19.70;12.15;;;;;;;-5.80;100.00;101218.72;5040613;28;20025;-85
2021/12/21 04:30:00;;;;;;;22.55;12.13;;;;;;;-5.90;100.00;101217.34;5002902;28;20030;-84
2021/12/21 04:32:28;;;;;;;19.77;12.00;;;;;;;-6.01;100.00;101220.25;5034873;28;20030;-87
2021/12/21 04:35:00;;;;;;;22.65;12.88;;;;;;;-6.09;100.00;101212.09;5035489;28;20493;-86
2021/12/21 04:37:25;;;;;;;24.90;12.80;;;;;;;-6.03;100.00;101214.09;5033458;28;20102;-86
2021/12/21 04:40:06;;;;;;;23.85;12.98;;;;;;;-6.00;100.00;101216.81;5033115;28;20477;-86
2021/12/21 04:42:35;;;;;;;24.00;12.63;;;;;;;-6.01;100.00;101217.66;5034561;28;20028;-87
2021/12/21 04:45:50;;;;;;;30.67;15.23;;;;;;;-6.07;100.00;101219.94;5033678;28;20563;-85
2021/12/21 04:48:56;;;;;;;28.00;14.73;;;;;;;-6.16;100.00;101222.97;4954383;28;20031;-87
2021/12/21 04:51:53;;;;;;;26.90;12.98;;;;;;;-6.35;100.00;101213.28;4950795;28;20415;-87
2021/12/21 04:58:00;;;;;;;28.70;13.68;;;;;;;-6.52;100.00;101208.06;4973928;28;20062;-84
2021/12/21 05:00:25;;;;;;;31.48;13.90;;;;;;;-6.50;100.00;101209.03;5020166;22;20053;-80
2021/12/21 05:02:51;;;;;;;26.13;14.45;;;;;;;-6.53;100.00;101208.84;5039955;28;20026;-81
2021/12/21 05:05:16;;;;;;;23.90;12.77;;;;;;;-6.51;100.00;101209.81;5035537;28;20474;-81
2021/12/21 05:07:46;;;;;;;23.20;13.20;;;;;;;-6.43;100.00;101213.75;5037757;28;20466;-80
2021/12/21 05:10:12;;;;;;;26.73;13.05;;;;;;;-6.39;100.00;101210.50;5039648;28;20013;-79
2021/12/21 05:12:38;;;;;;;28.67;13.43;;;;;;;-6.33;100.00;101201.25;5038803;28;20068;-81
2021/12/21 05:15:05;;;;;;;25.58;12.95;;;;;;;-6.34;100.00;101207.28;5039096;28;20037;-82
2021/12/21 05:17:30;;;;;;;24.52;13.60;;;;;;;-6.31;100.00;101212.63;5038291;28;20030;-83
2021/12/21 05:19:55;;;;;;;24.10;13.30;;;;;;;-6.31;100.00;101204.81;5039650;28;20025;-81
2021/12/21 05:22:21;;;;;;;28.08;14.95;;;;;;;-6.30;100.00;101206.63;5040346;28;20463;-82
2021/12/21 05:24:47;;;;;;;26.40;14.63;;;;;;;-6.30;100.00;101201.41;5043243;28;20033;-81
2021/12/21 05:27:12;;;;;;;28.40;14.65;;;;;;;-6.33;100.00;101209.94;5045988;28;20025;-82
2021/12/21 05:29:38;;;;;;;31.52;15.93;;;;;;;-6.42;100.00;101207.75;5044661;28;20029;-83
2021/12/21 05:32:05;;;;;;;32.20;15.93;;;;;;;-6.39;100.00;101205.28;5044644;28;20049;-82
2021/12/21 05:34:44;;;;;;;28.85;16.45;;;;;;;-6.40;100.00;101207.81;5045738;28;20026;-82
2021/12/21 05:37:09;;;;;;;33.85;16.15;;;;;;;-6.40;100.00;101211.31;5042935;28;20063;-82
2021/12/21 05:39:56;;;;;;;32.92;15.73;;;;;;;-6.41;100.00;101209.53;5038792;28;20061;-80
2021/12/21 05:42:22;;;;;;;34.28;15.65;;;;;;;-6.39;100.00;101204.44;5039380;28;20056;-81
2021/12/21 05:44:49;;;;;;;33.33;16.20;;;;;;;-6.44;100.00;101211.94;5043755;28;20026;-81
2021/12/21 05:47:16;;;;;;;28.95;15.45;;;;;;;-6.47;100.00;101214.41;5041946;28;20022;-81
2021/12/21 05:49:42;;;;;;;30.83;15.80;;;;;;;-6.53;100.00;101214.94;5042346;28;20017;-82
2021/12/21 05:52:10;;;;;;;28.83;14.35;;;;;;;-6.62;100.00;101209.22;5043619;28;20060;-82
2021/12/21 05:54:41;;;;;;;27.33;15.05;;;;;;;-6.60;100.00;101206.72;5041870;28;20032;-82
2021/12/21 05:57:06;;;;;;;28.58;15.65;;;;;;;-6.60;100.00;101211.94;5046052;28;20385;-82
2021/12/21 05:59:32;;;;;;;27.10;13.80;;;;;;;-6.62;100.00;101223.13;5042703;28;20021;-81
2021/12/21 06:02:00;;;;;;;29.98;14.40;;;;;;;-6.70;100.00;101219.22;5045018;28;20025;-82
2021/12/21 06:04:31;;;;;;;27.33;14.93;;;;;;;-6.77;100.00;101219.66;5040248;28;20034;-83
2021/12/21 06:07:00;;;;;;;28.63;15.43;;;;;;;-6.73;100.00;101213.84;5036148;28;20040;-82
2021/12/21 06:09:26;;;;;;;26.23;14.73;;;;;;;-6.77;100.00;101215.38;5035143;28;20116;-85
2021/12/21 06:24:01;;;;;;;32.55;14.65;;;;;;;-6.79;100.00;101216.09;5036152;28;20029;-85
2021/12/21 06:26:27;;;;;;;26.67;14.27;;;;;;;-6.85;100.00;101216.63;5035600;28;20028;-85
2021/12/21 06:29:15;;;;;;;28.67;14.88;;;;;;;-6.76;100.00;101222.38;5035070;28;20458;-84
2021/12/21 06:32:04;;;;;;;29.17;16.00;;;;;;;-6.72;100.00;101218.22;5034316;28;20336;-84
2021/12/21 06:34:40;;;;;;;24.77;13.77;;;;;;;-6.70;100.00;101221.81;5034665;28;20024;-80
2021/12/21 06:37:06;;;;;;;23.15;13.43;;;;;;;-6.71;100.00;101230.41;5035584;28;20034;-81
2021/12/21 06:39:33;;;;;;;28.63;14.57;;;;;;;-6.76;100.00;101221.47;5035460;28;20022;-82
2021/12/21 06:42:02;;;;;;;25.55;14.30;;;;;;;-6.79;100.00;101223.88;5033821;28;20557;-81
2021/12/21 06:44:29;;;;;;;26.00;14.80;;;;;;;-6.82;100.00;101221.09;5035376;28;20434;-81
2021/12/21 06:52:09;;;;;;;30.55;15.18;;;;;;;-6.90;100.00;101234.56;5035401;28;20088;-81
2021/12/21 06:54:35;;;;;;;34.17;15.13;;;;;;;-6.85;100.00;101227.94;5034484;28;20030;-84
2021/12/21 06:57:00;;;;;;;36.38;16.10;;;;;;;-6.90;100.00;101231.06;5034928;28;20044;-80
2021/12/21 06:59:26;;;;;;;34.70;15.20;;;;;;;-6.91;100.00;101227.59;5035234;28;20112;-82
2021/12/21 07:01:51;;;;;;;41.97;16.75;;;;;;;-6.97;100.00;101235.03;5036455;28;20029;-81
2021/12/21 07:04:19;;;;;;;32.22;16.08;;;;;;;-6.96;100.00;101229.03;5034901;28;20026;-82
2021/12/21 07:06:46;;;;;;;46.63;16.35;;;;;;;-6.94;100.00;101232.59;5036160;28;20026;-81
2021/12/21 07:11:47;;;;;;;40.65;16.75;;;;;;;-6.90;100.00;101231.06;5036867;28;20033;-80
2021/12/21 07:19:43;;;;;;;39.50;16.70;;;;;;;-6.84;100.00;101234.03;5036634;28;20054;-80
2021/12/21 07:22:09;;;;;;;39.95;16.00;;;;;;;-6.88;100.00;101243.31;5035869;28;20022;-80
2021/12/21 07:24:35;;;;;;;43.30;16.73;;;;;;;-6.79;100.00;101239.47;5036464;28;20021;-82
2021/12/21 07:27:01;;;;;;;45.75;17.63;;;;;;;-6.77;100.00;101235.25;5037558;28;20017;-81
2021/12/21 07:29:26;;;;;;;42.35;17.50;;;;;;;-6.78;100.00;101246.47;5040309;28;20053;-81
2021/12/21 07:31:52;;;;;;;55.28;16.50;;;;;;;-6.70;100.00;101240.00;5045200;28;20546;-81
2021/12/21 07:34:17;;;;;;;50.20;16.90;;;;;;;-6.64;100.00;101242.94;5043048;28;20021;-80
2021/12/21 07:36:43;;;;;;;41.17;16.25;;;;;;;-6.62;100.00;101236.13;5039713;28;20029;-81
2021/12/21 07:39:13;;;;;;;36.85;15.85;;;;;;;-6.53;100.00;101240.03;5038786;28;20024;-81
2021/12/21 07:41:40;;;;;;;47.55;16.00;;;;;;;-6.48;100.00;101248.09;5038686;28;20052;-81
2021/12/21 07:44:05;;;;;;;40.47;15.25;;;;;;;-6.50;100.00;101250.63;5038893;28;20430;-81
2021/12/21 07:46:31;;;;;;;37.25;15.73;;;;;;;-6.42;100.00;101246.75;5039427;28;20524;-80
2021/12/21 07:48:56;;;;;;;53.60;16.58;;;;;;;-6.43;100.00;101244.94;5040751;28;20045;-82
2021/12/21 07:51:23;;;;;;;39.40;15.48;;;;;;;-6.35;100.00;101244.47;5041151;28;20204;-80
2021/12/21 07:53:49;;;;;;;54.65;16.45;;;;;;;-6.44;100.00;101245.75;5039868;28;20017;-81
2021/12/21 07:56:16;;;;;;;65.10;17.02;;;;;;;-6.46;100.00;101252.56;5039102;28;20025;-82
2021/12/21 07:58:42;;;;;;;31.80;14.88;;;;;;;-6.41;100.00;101258.91;5037432;28;20017;-82
2021/12/21 08:01:08;;;;;;;39.67;15.85;;;;;;;-6.39;100.00;101254.69;5038812;28;20082;-81
2021/12/21 08:03:34;;;;;;;40.53;15.30;;;;;;;-6.42;100.00;101259.75;5037960;28;20025;-81
2021/12/21 08:06:02;;;;;;;63.45;16.77;;;;;;;-6.43;100.00;101246.63;5038160;28;20025;-82
2021/12/21 08:08:29;;;;;;;47.40;15.27;;;;;;;-6.44;100.00;101255.25;5036139;28;20469;-82
2021/12/21 08:11:12;;;;;;;37.13;15.52;;;;;;;-6.34;100.00;101261.88;5038623;28;20032;-82
2021/12/21 08:13:40;;;;;;;42.97;15.57;;;;;;;-6.20;100.00;101263.50;5037528;28;20017;-82
2021/12/21 08:16:09;;;;;;;31.75;15.07;;;;;;;-6.13;100.00;101263.84;5037295;28;20060;-82
2021/12/21 08:18:46;;;;;;;36.00;15.32;;;;;;;-6.06;100.00;101273.75;5037289;28;20027;-82
2021/12/21 08:21:17;;;;;;;31.30;14.75;;;;;;;-6.00;100.00;101266.25;5037700;28;20159;-81
2021/12/21 08:23:42;;;;;;;55.63;17.77;;;;;;;-6.05;100.00;101271.22;5038423;28;20497;-82
2021/12/21 08:26:08;;;;;;;70.35;17.98;;;;;;;-6.11;100.00;101270.03;5037546;28;20026;-81
2021/12/21 08:28:33;;;;;;;38.67;16.25;;;;;;;-5.95;100.00;101264.78;5037381;28;20474;-82
2021/12/21 08:31:16;;;;;;;41.67;16.73;;;;;;;-5.87;100.00;101264.31;5038308;28;20029;-82
2021/12/21 08:33:44;;;;;;;39.30;15.82;;;;;;;-5.84;100.00;101264.47;5037590;28;20021;-81
2021/12/21 08:36:10;;;;;;;39.10;15.60;;;;;;;-5.77;100.00;101261.38;5037788;28;20045;-82
2021/12/21 08:38:39;;;;;;;42.38;15.63;;;;;;;-5.76;100.00;101257.06;5038655;28;20048;-81
2021/12/21 08:41:05;;;;;;;47.78;16.15;;;;;;;-5.78;100.00;101259.59;5039167;28;20489;-82
2021/12/21 08:43:32;;;;;;;47.05;16.10;;;;;;;-5.87;100.00;101259.09;5039662;28;20024;-82
2021/12/21 08:45:59;;;;;;;41.10;16.25;;;;;;;-5.81;100.00;101256.84;5037254;28;20041;-82
2021/12/21 08:48:33;;;;;;;50.10;16.60;;;;;;;-5.73;100.00;101255.53;5038139;28;20401;-82
2021/12/21 08:51:00;;;;;;;45.92;16.35;;;;;;;-5.77;100.00;101250.09;5037578;28;20048;-81
2021/12/21 08:53:42;;;;;;;52.45;17.13;;;;;;;-5.86;100.00;101251.38;5036478;28;20592;-82
2021/12/21 08:56:16;;;;;;;66.25;16.45;;;;;;;-5.80;100.00;101247.31;5038803;28;20040;-81
2021/12/21 08:58:53;;;;;;;30.65;15.13;;;;;;;-5.67;100.00;101259.28;5038860;28;20075;-81
2021/12/21 09:01:37;;;;;;;61.97;16.08;;;;;;;-5.62;100.00;101257.81;5037117;28;20033;-82
2021/12/21 09:04:02;;;;;;;77.78;18.38;;;;;;;-5.73;100.00;101255.53;5039588;28;20025;-81
2021/12/21 09:06:36;;;;;;;58.65;16.77;;;;;;;-5.67;100.00;101248.88;5037959;28;20022;-81
2021/12/21 09:09:28;;;;;;;45.97;16.08;;;;;;;-5.63;100.00;101267.31;5036611;28;20042;-81
2021/12/21 09:11:53;;;;;;;41.47;15.85;;;;;;;-5.57;100.00;101269.34;5038738;28;20550;-81
2021/12/21 09:14:22;;;;;;;56.35;17.10;;;;;;;-5.55;100.00;101252.09;5038363;28;20018;-82
2021/12/21 09:16:47;;;;;;;53.78;16.70;;;;;;;-5.49;100.00;101260.22;5037024;28;20112;-81
2021/12/21 09:19:13;;;;;;;34.88;15.63;;;;;;;-5.41;100.00;101267.56;5038749;28;20064;-81
2021/12/21 09:21:38;;;;;;;51.30;16.83;;;;;;;-5.46;100.00;101266.41;5036596;28;20029;-82
2021/12/21 09:24:04;;;;;;;46.03;17.35;;;;;;;-5.46;100.00;101269.88;5034601;28;20527;-84
2021/12/21 09:26:29;;;;;;;72.05;19.23;;;;;;;-5.34;100.00;101267.03;5035646;28;20541;-83
2021/12/21 09:29:09;;;;;;;63.40;17.55;;;;;;;-5.42;100.00;101269.25;5037837;28;20029;-83
2021/12/21 09:31:35;;;;;;;62.38;18.00;;;;;;;-5.34;100.00;101272.25;5039946;28;20033;-83
2021/12/21 09:34:00;;;;;;;94.82;19.55;;;;;;;-5.41;100.00;101276.22;5038796;28;20022;-83
2021/12/21 09:36:28;;;;;;;76.70;19.75;;;;;;;-5.34;100.00;101272.25;5042335;28;20029;-83
2021/12/21 09:38:54;;;;;;;99.05;21.33;;;;;;;-5.35;100.00;101273.06;5041707;28;20112;-82
2021/12/21 09:41:19;;;;;;;78.78;18.90;;;;;;;-5.27;100.00;101274.34;5039574;28;20482;-83
2021/12/21 09:43:44;;;;;;;110.00;20.17;;;;;;;-5.28;100.00;101276.84;5038232;28;20024;-84
2021/12/21 09:46:10;;;;;;;50.80;17.48;;;;;;;-5.28;100.00;101275.16;5038612;28;20080;-82
2021/12/21 09:48:37;;;;;;;56.60;19.02;;;;;;;-5.22;100.00;101278.88;5039537;28;20029;-84
2021/12/21 09:51:03;;;;;;;60.17;21.02;;;;;;;-5.08;100.00;101283.09;5040409;28;20156;-83
2021/12/21 09:53:31;;;;;;;126.25;22.63;;;;;;;-5.19;100.00;101273.84;5039724;28;20099;-81
2021/12/21 09:55:58;;;;;;;55.45;18.10;;;;;;;-5.12;100.00;101278.53;5039731;28;20033;-84
2021/12/21 09:58:23;;;;;;;103.80;20.65;;;;;;;-5.10;100.00;101282.09;5037544;28;20112;-82
2021/12/21 10:00:51;;;;;;;94.88;21.98;;;;;;;-5.08;100.00;101280.50;5035294;28;20065;-82
2021/12/21 10:03:17;;;;;;;149.52;23.50;;;;;;;-5.15;100.00;101278.38;5037257;28;20049;-81
2021/12/21 10:05:46;;;;;;;58.85;20.45;;;;;;;-5.12;100.00;101286.34;5037647;28;20033;-81
2021/12/21 10:08:15;;;;;;;133.75;22.50;;;;;;;-5.16;100.00;101276.59;5037094;28;20021;-81
2021/12/21 10:10:45;;;;;;;112.20;22.55;;;;;;;-5.02;100.00;101273.81;5036910;28;20060;-82
2021/12/21 10:13:18;;;;;;;123.97;22.45;;;;;;;-4.97;100.00;101269.69;5035499;28;20021;-82
2021/12/21 10:15:49;;;;;;;86.70;23.40;;;;;;;-4.90;100.00;101268.31;5036430;28;20033;-82
2021/12/21 10:18:24;;;;;;;101.93;23.55;;;;;;;-4.84;100.00;101269.50;5036747;28;20110;-81
2021/12/21 10:20:50;;;;;;;92.00;22.73;;;;;;;-4.74;100.00;101265.63;5035451;28;20092;-81
2021/12/21 10:23:31;;;;;;;112.50;26.25;;;;;;;-4.71;100.00;101259.66;5034398;28;20033;-81
2021/12/21 10:26:03;;;;;;;115.20;21.48;;;;;;;-4.76;100.00;101259.44;5034661;28;20021;-81
2021/12/21 10:28:43;;;;;;;79.07;22.35;;;;;;;-4.66;100.00;101252.06;5035967;28;20056;-80
2021/12/21 10:31:22;;;;;;;56.42;21.10;;;;;;;-4.60;100.00;101252.38;5035861;28;20481;-80
2021/12/21 10:33:48;;;;;;;86.00;23.15;;;;;;;-4.61;100.00;101250.56;5033864;28;20021;-81
2021/12/21 10:36:16;;;;;;;78.85;22.85;;;;;;;-4.54;100.00;101246.56;5033892;28;20033;-80
2021/12/21 10:38:52;;;;;;;66.30;21.92;;;;;;;-4.64;100.00;101251.31;5034470;28;20029;-80
2021/12/21 10:41:32;;;;;;;98.50;23.02;;;;;;;-4.51;100.00;101251.94;5033838;28;20506;-80
2021/12/21 10:44:05;;;;;;;47.95;21.73;;;;;;;-4.44;100.00;101233.16;5034680;28;20025;-79
2021/12/21 10:46:36;;;;;;;62.97;21.75;;;;;;;-4.47;100.00;101227.78;5036345;28;20100;-79
2021/12/21 10:49:13;;;;;;;54.70;23.08;;;;;;;-4.42;100.00;101230.59;5034944;28;20532;-79
2021/12/21 10:52:05;;;;;;;76.13;21.85;;;;;;;-4.40;100.00;101240.28;5034313;28;20033;-78
2021/12/21 10:54:45;;;;;;;57.72;21.77;;;;;;;-4.36;100.00;101243.94;5035259;28;20029;-81
2021/12/21 10:57:19;;;;;;;88.22;23.58;;;;;;;-4.30;100.00;101230.25;5036595;28;20394;-80
2021/12/21 10:59:51;;;;;;;303.73;31.45;;;;;;;-4.51;100.00;101226.72;5034453;28;20049;-81
2021/12/21 11:02:21;;;;;;;44.55;18.10;;;;;;;-4.34;100.00;101228.34;5034359;28;20065;-80
2021/12/21 11:04:51;;;;;;;190.63;27.77;;;;;;;-4.40;100.00;101229.84;5039725;28;20458;-81
2021/12/21 11:07:45;;;;;;;122.13;24.10;;;;;;;-4.28;100.00;101213.88;5040117;28;20100;-81
2021/12/21 11:10:20;;;;;;;108.00;24.70;;;;;;;-4.34;100.00;101211.00;5037964;28;20021;-80
2021/12/21 11:12:52;;;;;;;35.47;19.08;;;;;;;-4.19;100.00;101209.91;5037863;28;20105;-80
2021/12/21 11:15:28;;;;;;;118.78;22.48;;;;;;;-4.33;100.00;101209.28;5039028;28;20544;-80
2021/12/21 11:17:54;;;;;;;139.13;24.13;;;;;;;-4.17;100.00;101214.38;5037384;28;20026;-81
2021/12/21 11:20:19;;;;;;;236.38;29.55;;;;;;;-4.13;100.00;101214.50;5038429;28;20018;-80
2021/12/21 11:22:45;;;;;;;124.30;23.77;;;;;;;-4.17;100.00;101214.38;5037295;28;20021;-81
2021/12/21 11:25:12;;;;;;;169.75;24.00;;;;;;;-4.30;100.00;101212.00;5037300;28;20025;-80
2021/12/21 11:27:39;;;;;;;55.10;21.63;;;;;;;-4.16;100.00;101213.56;5038079;28;20030;-81
2021/12/21 11:30:08;;;;;;;91.65;23.02;;;;;;;-4.17;100.00;101216.97;5041300;28;20099;-81
2021/12/21 11:32:38;;;;;;;116.78;23.70;;;;;;;-4.16;100.00;101207.44;5041107;28;20029;-79
2021/12/21 11:37:20;;;;;;;237.63;34.33;;;;;;;-4.28;100.00;101213.88;5039727;28;20485;-80
2021/12/21 11:37:57;;;;;;;115.45;25.88;;;;;;;-4.30;100.00;101212.91;5041299;28;20029;-82
2021/12/21 11:40:28;;;;;;;449.42;51.40;;;;;;;-4.48;100.00;101210.34;5041217;28;20034;-83
2021/12/21 11:43:22;;;;;;;99.70;25.88;;;;;;;-4.33;100.00;101209.28;5044507;28;20024;-82
2021/12/21 11:45:52;;;;;;;223.98;31.83;;;;;;;-4.33;100.00;101206.69;5045361;28;20029;-82
2021/12/21 11:48:26;;;;;;;277.35;31.23;;;;;;;-4.43;100.00;101197.53;5044428;28;20029;-82
2021/12/21 11:50:52;;;;;;;95.10;25.30;;;;;;;-4.34;100.00;101197.06;5038431;28;20382;-83
2021/12/21 11:53:19;;;;;;;56.58;22.35;;;;;;;-4.30;100.00;101194.66;5036899;28;20474;-85
2021/12/21 11:55:47;;;;;;;121.80;25.80;;;;;;;-4.31;100.00;101198.09;5035961;28;20035;-82
2021/12/21 11:58:20;;;;;;;141.30;26.85;;;;;;;-4.28;100.00;101198.22;5036859;28;20025;-83
2021/12/21 12:00:56;;;;;;;113.88;25.73;;;;;;;-4.41;100.00;101201.09;5037867;28;20067;-82
2021/12/21 12:03:24;;;;;;;147.15;27.48;;;;;;;-4.35;100.00;101200.50;5039024;28;20040;-81
2021/12/21 12:06:02;;;;;;;114.57;25.17;;;;;;;-4.33;100.00;101198.84;5040604;28;20025;-82
2021/12/21 12:08:44;;;;;;;136.65;27.13;;;;;;;-4.32;100.00;101195.41;5040263;28;20033;-82
2021/12/21 12:11:37;;;;;;;100.85;25.65;;;;;;;-4.22;100.00;101192.41;5040627;28;20093;-85
2021/12/21 12:14:20;;;;;;;259.35;36.05;;;;;;;-4.09;100.00;101199.06;5039200;28;20108;-81
2021/12/21 12:16:51;;;;;;;87.25;25.80;;;;;;;-4.09;100.00;101187.72;5039404;28;20029;-80
2021/12/21 12:19:19;;;;;;;108.18;27.55;;;;;;;-4.08;100.00;101184.31;5041277;28;20515;-81
2021/12/21 12:21:53;;;;;;;137.40;29.23;;;;;;;-4.10;100.00;101181.63;5062044;22;20045;-72
2021/12/21 12:24:20;;;;;;;114.78;26.77;;;;;;;-4.10;100.00;101181.63;5035317;28;20060;-71
2021/12/21 12:26:56;;;;;;;63.47;27.00;;;;;;;-4.01;100.00;101182.84;5034873;28;20028;-71
2021/12/21 12:29:21;;;;;;;84.85;27.65;;;;;;;-3.98;100.00;101176.06;5034891;28;20026;-71
2021/12/21 12:31:57;;;;;;;148.35;30.52;;;;;;;-3.98;100.00;101177.78;5033633;28;20544;-72
2021/12/21 12:34:25;;;;;;;118.25;27.05;;;;;;;-4.10;100.00;101170.31;5034698;28;20535;-71
2021/12/21 12:36:51;;;;;;;81.53;26.50;;;;;;;-4.12;100.00;101171.97;5034825;28;20501;-71